Time;durP1;ratioP1;P1;durP2;ratioP2;P2;SDS_P1;SDS_P2;PMS_P1;PMS_P2;Temp;Humidity;BMP_temperature;BMP_pressure;BME280_temperature;BME280_humidity;BME280_pressure;Samples;Min_cycle;Max_cycle;Signal;HPM_P1;HPM_P2
2021/09/01 00:00:49;;;;;;;17.17;9.73;;;16.00;99.90;;;;;;5056109;28;20194;-73
2021/09/01 00:03:14;;;;;;;14.23;8.80;;;16.00;99.90;;;;;;5056166;28;20183;-72
2021/09/01 00:05:40;;;;;;;13.43;8.57;;;16.00;99.90;;;;;;5055613;28;20257;-73
2021/09/01 00:08:06;;;;;;;11.27;8.87;;;16.00;99.90;;;;;;5037864;28;20214;-73
2021/09/01 00:10:31;;;;;;;15.13;8.73;;;16.10;99.90;;;;;;5055736;28;20186;-73
2021/09/01 00:12:57;;;;;;;13.30;8.50;;;16.10;99.90;;;;;;5055655;28;20945;-72
2021/09/01 00:15:22;;;;;;;19.40;9.83;;;16.10;99.90;;;;;;5037941;28;20209;-72
2021/09/01 00:17:48;;;;;;;20.47;8.87;;;16.10;99.90;;;;;;5055913;28;20171;-73
2021/09/01 00:20:14;;;;;;;14.10;8.20;;;16.10;99.90;;;;;;5055220;28;20206;-73
2021/09/01 00:22:39;;;;;;;13.80;8.80;;;16.10;99.90;;;;;;5037793;28;20178;-72
2021/09/01 00:25:06;;;;;;;16.70;9.23;;;16.00;99.90;;;;;;5055693;28;20216;-72
2021/09/01 00:27:32;;;;;;;20.20;10.40;;;16.00;99.90;;;;;;5055675;28;20285;-72
2021/09/01 00:29:58;;;;;;;13.10;8.57;;;15.80;99.90;;;;;;5056162;28;20494;-72
2021/09/01 00:32:23;;;;;;;15.33;8.63;;;15.80;99.90;;;;;;5056983;28;20170;-72
2021/09/01 00:34:49;;;;;;;15.43;8.70;;;15.80;99.90;;;;;;5055967;28;20182;-73
2021/09/01 00:37:14;;;;;;;13.43;8.73;;;15.80;99.90;;;;;;5055380;28;20181;-72
2021/09/01 00:39:40;;;;;;;12.97;8.30;;;15.70;99.90;;;;;;5037030;28;20202;-73
2021/09/01 00:42:06;;;;;;;12.00;8.47;;;15.70;99.90;;;;;;5055495;28;20675;-73
2021/09/01 00:44:32;;;;;;;15.67;9.20;;;15.70;99.90;;;;;;5054973;28;20209;-73
2021/09/01 00:46:58;;;;;;;15.63;9.60;;;15.60;99.90;;;;;;5054963;28;20488;-72
2021/09/01 00:49:27;;;;;;;11.60;8.17;;;15.60;99.90;;;;;;5055322;28;20436;-72
2021/09/01 00:51:53;;;;;;;18.13;8.17;;;15.60;99.90;;;;;;5055084;28;20193;-72
2021/09/01 00:54:20;;;;;;;13.70;8.73;;;15.70;99.90;;;;;;5036816;28;20441;-72
2021/09/01 00:56:51;;;;;;;14.25;9.30;;;15.60;99.90;;;;;;5054731;28;20507;-73
2021/09/01 00:59:22;;;;;;;13.73;8.43;;;15.60;99.90;;;;;;5054873;28;20204;-73
2021/09/01 01:01:48;;;;;;;12.93;8.07;;;15.60;99.90;;;;;;5055791;28;20482;-73
2021/09/01 01:04:14;;;;;;;13.03;7.87;;;15.60;99.90;;;;;;5054752;28;20796;-72
2021/09/01 01:06:39;;;;;;;22.67;9.10;;;15.60;99.90;;;;;;5054863;28;20197;-72
2021/09/01 01:09:06;;;;;;;14.30;8.97;;;15.60;99.90;;;;;;5054630;28;20177;-73
2021/09/01 01:11:31;;;;;;;13.63;8.60;;;15.70;99.90;;;;;;5054423;28;20212;-72
2021/09/01 01:13:57;;;;;;;17.80;7.87;;;15.70;99.90;;;;;;5054131;28;20420;-72
2021/09/01 01:16:23;;;;;;;12.57;8.00;;;15.70;99.90;;;;;;5055255;28;20232;-74
2021/09/01 01:18:53;;;;;;;11.40;7.30;;;15.70;99.90;;;;;;5054394;28;20171;-72
2021/09/01 01:21:20;;;;;;;13.53;7.40;;;15.60;99.90;;;;;;5055264;28;20841;-72
2021/09/01 01:23:59;;;;;;;16.20;7.90;;;15.60;99.90;;;;;;5054502;28;20417;-72
2021/09/01 01:26:31;;;;;;;11.63;7.20;;;15.60;99.90;;;;;;5054454;28;20509;-72
2021/09/01 01:28:59;;;;;;;10.13;7.40;;;15.50;99.90;;;;;;5054342;28;20396;-72
2021/09/01 01:31:25;;;;;;;12.47;7.37;;;15.60;99.90;;;;;;5037020;28;20762;-72
2021/09/01 01:33:52;;;;;;;12.63;7.70;;;15.70;99.90;;;;;;5054078;28;20416;-72
2021/09/01 01:36:17;;;;;;;13.77;7.50;;;15.70;99.90;;;;;;5054459;28;20918;-72
2021/09/01 01:38:43;;;;;;;11.50;6.53;;;15.70;99.90;;;;;;5054141;28;20489;-72
2021/09/01 01:41:10;;;;;;;9.50;6.97;;;15.80;99.90;;;;;;5054521;28;20521;-72
2021/09/01 01:43:38;;;;;;;9.33;6.77;;;15.90;99.90;;;;;;5053829;28;20193;-72
2021/09/01 01:46:07;;;;;;;10.90;6.57;;;15.90;99.90;;;;;;5054154;28;20419;-72
2021/09/01 01:48:34;;;;;;;12.70;8.07;;;16.00;99.90;;;;;;5054144;28;20966;-73
2021/09/01 01:51:00;;;;;;;8.33;5.90;;;15.90;99.90;;;;;;5054582;28;20432;-72
2021/09/01 01:53:26;;;;;;;8.33;6.10;;;15.90;99.90;;;;;;5054666;28;20424;-72
2021/09/01 01:55:51;;;;;;;12.47;7.47;;;15.80;99.90;;;;;;5054098;28;20424;-72
2021/09/01 01:58:17;;;;;;;12.67;6.73;;;15.80;99.90;;;;;;5054369;28;20174;-72
2021/09/01 02:00:44;;;;;;;14.17;6.60;;;15.80;99.90;;;;;;5036995;28;20214;-72
2021/09/01 02:03:09;;;;;;;15.20;6.57;;;15.80;99.90;;;;;;5054347;28;20503;-72
2021/09/01 02:05:35;;;;;;;11.33;6.47;;;15.80;99.90;;;;;;5053801;28;20182;-72
2021/09/01 02:08:00;;;;;;;10.53;6.10;;;15.80;99.90;;;;;;5054626;28;20210;-72
2021/09/01 02:10:26;;;;;;;9.27;5.87;;;15.80;99.90;;;;;;5053821;28;20196;-72
2021/09/01 02:12:51;;;;;;;12.30;8.02;;;15.80;99.90;;;;;;5053342;28;20423;-72
2021/09/01 02:15:17;;;;;;;11.10;7.10;;;15.70;99.90;;;;;;5054085;28;20178;-72
2021/09/01 02:17:43;;;;;;;11.33;6.87;;;15.70;99.90;;;;;;5053862;28;20205;-72
2021/09/01 02:20:11;;;;;;;14.40;7.67;;;15.60;99.90;;;;;;5053697;28;20233;-72
2021/09/01 02:22:37;;;;;;;11.33;7.23;;;15.50;99.90;;;;;;5036721;28;20771;-72
2021/09/01 02:25:04;;;;;;;13.70;8.33;;;15.50;99.90;;;;;;5053926;28;20461;-72
2021/09/01 02:27:30;;;;;;;12.07;7.43;;;15.50;99.90;;;;;;5053277;28;20460;-72
2021/09/01 02:29:57;;;;;;;12.03;7.47;;;15.50;99.90;;;;;;5053901;28;20408;-73
2021/09/01 02:32:23;;;;;;;10.40;7.17;;;15.60;99.90;;;;;;5054826;28;20253;-72
2021/09/01 02:34:49;;;;;;;10.87;8.07;;;15.60;99.90;;;;;;5054449;28;20492;-73
2021/09/01 02:37:14;;;;;;;13.47;8.03;;;15.50;99.90;;;;;;5054367;28;20448;-72
2021/09/01 02:39:40;;;;;;;14.97;8.07;;;15.50;99.90;;;;;;5054529;28;20401;-72
2021/09/01 02:42:06;;;;;;;12.47;7.20;;;15.50;99.90;;;;;;5053951;28;20200;-72
2021/09/01 02:44:31;;;;;;;12.13;7.40;;;15.50;99.90;;;;;;5053414;28;20252;-72
2021/09/01 02:46:57;;;;;;;10.73;7.53;;;15.50;99.90;;;;;;5053943;28;20246;-72
2021/09/01 02:49:22;;;;;;;12.90;7.03;;;15.50;99.90;;;;;;5054121;28;20178;-72
2021/09/01 02:51:48;;;;;;;11.03;7.67;;;15.50;99.90;;;;;;5035684;28;20197;-72
2021/09/01 02:54:13;;;;;;;14.93;8.80;;;15.40;99.90;;;;;;5053113;28;20185;-72
2021/09/01 02:56:39;;;;;;;12.13;7.73;;;15.50;99.90;;;;;;5053694;28;20206;-72
2021/09/01 02:59:04;;;;;;;12.60;8.83;;;15.40;99.90;;;;;;5054026;28;20167;-72
2021/09/01 03:01:30;;;;;;;16.13;7.80;;;15.40;99.90;;;;;;5054953;28;20191;-72
2021/09/01 03:03:55;;;;;;;12.20;7.90;;;15.40;99.90;;;;;;5053581;28;20178;-72
2021/09/01 03:06:21;;;;;;;15.47;8.17;;;15.40;99.90;;;;;;5053981;28;20170;-73
2021/09/01 03:08:46;;;;;;;17.20;8.97;;;15.40;99.90;;;;;;5054550;28;20216;-72
2021/09/01 03:11:12;;;;;;;14.80;8.97;;;15.50;99.90;;;;;;5053016;28;20214;-73
2021/09/01 03:13:38;;;;;;;12.77;8.60;;;15.50;99.90;;;;;;5053209;28;20182;-72
2021/09/01 03:16:03;;;;;;;16.30;8.37;;;15.40;99.90;;;;;;5055061;28;20593;-72
2021/09/01 03:18:29;;;;;;;10.10;7.97;;;15.50;99.90;;;;;;5056669;28;20186;-71
2021/09/01 03:20:54;;;;;;;15.70;7.80;;;15.60;99.90;;;;;;5057612;28;20194;-71
2021/09/01 03:23:20;;;;;;;13.00;8.20;;;15.70;99.90;;;;;;5056673;28;20209;-72
2021/09/01 03:25:46;;;;;;;20.20;9.23;;;15.70;99.90;;;;;;5056088;28;20249;-72
2021/09/01 03:28:11;;;;;;;14.50;9.40;;;15.60;99.90;;;;;;5038223;28;20801;-73
2021/09/01 03:30:37;;;;;;;14.93;9.20;;;15.50;99.90;;;;;;5055977;28;20194;-73
2021/09/01 03:33:03;;;;;;;15.33;9.27;;;15.40;99.90;;;;;;5056126;28;20660;-73
2021/09/01 03:35:29;;;;;;;13.10;9.40;;;15.40;99.90;;;;;;5056734;28;20526;-73
2021/09/01 03:37:54;;;;;;;18.33;11.10;;;15.40;99.90;;;;;;5056791;28;20174;-73
2021/09/01 03:40:20;;;;;;;16.07;10.10;;;15.30;99.90;;;;;;5056139;28;20194;-73
2021/09/01 03:42:46;;;;;;;12.17;8.93;;;15.30;99.90;;;;;;5056283;28;20689;-73
2021/09/01 03:45:12;;;;;;;17.97;10.53;;;15.30;99.90;;;;;;5057059;28;20413;-73
2021/09/01 03:47:37;;;;;;;19.07;9.83;;;15.30;99.90;;;;;;5056283;28;20237;-73
2021/09/01 03:50:06;;;;;;;15.50;9.30;;;15.30;99.90;;;;;;5056356;28;20905;-73
2021/09/01 03:52:32;;;;;;;22.83;9.87;;;15.30;99.90;;;;;;5056099;28;20543;-72
2021/09/01 03:54:57;;;;;;;15.90;9.07;;;15.20;99.90;;;;;;5038269;28;20412;-73
2021/09/01 03:57:23;;;;;;;22.80;9.70;;;15.20;99.90;;;;;;5057005;28;20214;-72
2021/09/01 03:59:49;;;;;;;18.03;9.67;;;15.10;99.90;;;;;;5056883;28;20212;-72
2021/09/01 04:02:14;;;;;;;13.20;9.30;;;15.10;99.90;;;;;;5056577;28;20189;-72
2021/09/01 04:04:40;;;;;;;15.47;9.80;;;15.10;99.90;;;;;;5056231;28;20179;-73
2021/09/01 04:07:06;;;;;;;11.00;9.03;;;15.10;99.90;;;;;;5056415;28;20550;-72
2021/09/01 04:09:32;;;;;;;15.03;9.57;;;15.10;99.90;;;;;;5037875;28;20186;-73
2021/09/01 04:11:57;;;;;;;12.83;8.90;;;15.10;99.90;;;;;;5056079;28;20255;-72
2021/09/01 04:14:23;;;;;;;15.67;10.33;;;15.10;99.90;;;;;;5055723;28;20408;-73
2021/09/01 04:16:49;;;;;;;18.40;11.27;;;15.10;99.90;;;;;;5055271;28;20176;-73
2021/09/01 04:19:15;;;;;;;13.17;9.30;;;15.10;99.90;;;;;;5037187;28;20623;-72
2021/09/01 04:21:40;;;;;;;18.63;10.43;;;15.00;99.90;;;;;;5055580;28;20759;-72
2021/09/01 04:24:06;;;;;;;12.40;9.50;;;15.10;99.90;;;;;;5055786;28;20170;-72
2021/09/01 04:26:31;;;;;;;15.50;10.23;;;15.10;99.90;;;;;;5055153;28;20205;-72
2021/09/01 04:28:57;;;;;;;17.80;10.07;;;15.20;99.90;;;;;;5054345;28;20182;-72
2021/09/01 04:31:23;;;;;;;17.67;10.13;;;15.20;99.90;;;;;;5055164;28;20672;-73
2021/09/01 04:33:48;;;;;;;20.00;10.07;;;15.20;99.90;;;;;;5055058;28;20186;-72
2021/09/01 04:36:14;;;;;;;16.83;9.40;;;15.20;99.90;;;;;;5055211;28;20639;-72
2021/09/01 04:38:39;;;;;;;14.30;9.57;;;15.30;99.90;;;;;;5055129;28;20163;-72
2021/09/01 04:41:05;;;;;;;14.43;8.70;;;15.30;99.90;;;;;;5054557;28;20582;-72
2021/09/01 04:43:30;;;;;;;16.00;10.77;;;15.40;99.90;;;;;;5054493;28;20189;-73
2021/09/01 04:45:56;;;;;;;14.53;10.00;;;15.30;99.90;;;;;;5055146;28;20166;-73
2021/09/01 04:48:24;;;;;;;14.83;9.40;;;15.30;99.90;;;;;;5054329;28;20206;-73
2021/09/01 04:50:50;;;;;;;17.57;10.20;;;15.40;99.90;;;;;;5054824;28;20236;-72
2021/09/01 04:53:16;;;;;;;12.90;9.53;;;15.40;99.90;;;;;;5054326;28;20913;-72
2021/09/01 04:55:41;;;;;;;16.40;9.90;;;15.30;99.90;;;;;;5054307;28;20787;-73
2021/09/01 04:58:07;;;;;;;17.53;9.80;;;15.20;99.90;;;;;;5054573;28;20174;-72
2021/09/01 05:00:32;;;;;;;14.43;8.77;;;15.10;99.90;;;;;;5054604;28;20186;-74
2021/09/01 05:02:58;;;;;;;14.17;9.07;;;15.20;99.90;;;;;;5054492;28;20179;-73
2021/09/01 05:05:23;;;;;;;15.00;9.57;;;15.30;99.90;;;;;;5054181;28;20681;-73
2021/09/01 05:07:49;;;;;;;14.53;10.17;;;15.40;99.90;;;;;;5036931;28;20669;-73
2021/09/01 05:10:15;;;;;;;14.50;8.70;;;15.40;99.90;;;;;;5054663;28;20208;-73
2021/09/01 05:12:40;;;;;;;13.20;9.37;;;15.50;99.90;;;;;;5054263;28;20627;-72
2021/09/01 05:15:06;;;;;;;13.20;8.40;;;15.60;99.90;;;;;;5053907;28;20188;-73
2021/09/01 05:17:31;;;;;;;12.77;8.77;;;15.60;99.90;;;;;;5050009;28;20202;-72
2021/09/01 05:19:57;;;;;;;15.40;8.83;;;15.50;99.90;;;;;;5017642;28;20189;-72
2021/09/01 05:22:28;;;;;;;13.30;9.10;;;15.60;99.90;;;;;;5035474;28;20254;-71
2021/09/01 05:25:12;;;;;;;14.88;10.60;;;15.60;99.90;;;;;;5043086;28;20777;-72
2021/09/01 05:27:40;;;;;;;14.10;9.23;;;15.70;99.90;;;;;;5055622;28;20240;-72
2021/09/01 05:30:08;;;;;;;16.87;9.40;;;15.70;99.90;;;;;;5054763;28;20439;-72
2021/09/01 05:32:37;;;;;;;15.07;9.70;;;15.60;99.90;;;;;;5048907;28;20421;-72
2021/09/01 05:35:04;;;;;;;14.30;9.37;;;15.60;99.90;;;;;;5018073;28;20421;-71
2021/09/01 05:37:29;;;;;;;16.63;9.73;;;15.60;99.90;;;;;;5051927;28;20432;-71
2021/09/01 05:39:59;;;;;;;13.17;10.13;;;15.60;99.90;;;;;;5054393;28;20405;-72
2021/09/01 05:42:27;;;;;;;13.33;9.03;;;15.50;99.90;;;;;;5053793;28;20586;-72
2021/09/01 05:45:14;;;;;;;17.00;9.03;;;15.40;99.90;;;;;;5054455;28;20411;-72
2021/09/01 05:47:44;;;;;;;12.57;9.00;;;15.40;99.90;;;;;;5028515;28;21067;-74
2021/09/01 05:50:10;;;;;;;11.77;8.90;;;15.40;99.90;;;;;;5034260;28;20460;-72
2021/09/01 05:52:36;;;;;;;11.87;8.87;;;15.50;99.90;;;;;;5053586;28;20787;-72
2021/09/01 05:55:04;;;;;;;13.60;8.10;;;15.60;99.90;;;;;;5050500;28;20178;-72
2021/09/01 05:57:38;;;;;;;15.40;9.10;;;15.70;99.90;;;;;;5046275;28;20276;-72
2021/09/01 06:00:08;;;;;;;12.50;7.47;;;15.70;99.90;;;;;;5044857;28;20424;-73
2021/09/01 06:02:42;;;;;;;16.40;8.73;;;15.70;99.90;;;;;;5040369;28;20449;-72
2021/09/01 06:05:09;;;;;;;13.83;8.13;;;15.70;99.90;;;;;;5036979;28;20524;-72
2021/09/01 06:07:38;;;;;;;10.47;8.03;;;15.80;99.90;;;;;;5053104;28;20823;-72
2021/09/01 06:10:04;;;;;;;12.43;8.03;;;15.90;99.90;;;;;;5053310;28;20448;-73
2021/09/01 06:12:31;;;;;;;14.90;9.20;;;16.00;99.90;;;;;;5051731;28;20517;-72
2021/09/01 06:14:57;;;;;;;11.40;8.80;;;16.00;99.90;;;;;;5040369;28;20418;-74
2021/09/01 06:17:22;;;;;;;10.90;8.10;;;16.00;99.90;;;;;;5038016;28;20444;-73
2021/09/01 06:19:48;;;;;;;10.77;8.40;;;16.00;99.90;;;;;;5043732;28;20416;-72
2021/09/01 06:22:15;;;;;;;13.43;8.63;;;16.00;99.90;;;;;;5042697;28;20202;-72
2021/09/01 06:24:41;;;;;;;13.90;8.73;;;16.00;99.90;;;;;;5045669;28;20209;-72
2021/09/01 06:27:08;;;;;;;11.00;8.43;;;16.00;99.90;;;;;;5047205;28;20496;-72
2021/09/01 06:29:33;;;;;;;13.87;8.50;;;16.00;99.90;;;;;;5041529;28;20504;-71
2021/09/01 06:31:59;;;;;;;16.03;9.40;;;15.90;99.90;;;;;;5043279;28;20541;-72
2021/09/01 06:34:25;;;;;;;14.17;8.27;;;15.90;99.90;;;;;;5032915;28;20202;-72
2021/09/01 06:36:51;;;;;;;13.48;8.65;;;15.80;99.90;;;;;;5033589;28;20452;-73
2021/09/01 06:39:16;;;;;;;13.70;9.20;;;15.90;99.90;;;;;;5033686;28;20171;-73
2021/09/01 06:41:42;;;;;;;11.10;7.47;;;16.00;99.90;;;;;;5042466;28;20217;-72
2021/09/01 06:44:08;;;;;;;15.63;8.30;;;16.00;99.90;;;;;;5053005;28;20205;-71
2021/09/01 06:46:33;;;;;;;14.03;8.20;;;16.10;99.90;;;;;;5042807;28;20243;-74
2021/09/01 06:48:59;;;;;;;13.30;8.33;;;16.10;99.90;;;;;;5049795;28;20902;-73
2021/09/01 06:51:25;;;;;;;11.33;7.80;;;16.20;99.90;;;;;;5052538;28;20209;-74
2021/09/01 06:53:50;;;;;;;11.87;7.80;;;16.30;99.90;;;;;;5069842;28;20212;-72
2021/09/01 06:56:16;;;;;;;12.30;8.13;;;16.30;99.90;;;;;;5057596;28;20189;-73
2021/09/01 06:58:41;;;;;;;14.97;8.70;;;16.20;99.90;;;;;;5051701;28;20182;-73
2021/09/01 07:01:07;;;;;;;12.43;8.23;;;16.10;99.90;;;;;;5046087;28;20197;-73
2021/09/01 07:03:33;;;;;;;15.83;9.10;;;16.20;99.90;;;;;;5073248;28;20605;-72
2021/09/01 07:05:58;;;;;;;16.83;8.77;;;16.30;99.90;;;;;;5073448;28;20727;-72
2021/09/01 07:08:24;;;;;;;11.23;7.50;;;16.30;99.90;;;;;;5052104;28;20229;-73
2021/09/01 07:10:51;;;;;;;10.73;7.80;;;16.40;99.90;;;;;;5062229;28;20697;-72
2021/09/01 07:13:17;;;;;;;15.53;8.80;;;16.50;99.90;;;;;;5064176;28;20190;-72
2021/09/01 07:15:44;;;;;;;14.00;9.17;;;16.50;99.90;;;;;;5057055;28;20452;-73
2021/09/01 07:18:10;;;;;;;14.40;8.37;;;16.60;99.90;;;;;;5051407;28;20415;-73
2021/09/01 07:20:37;;;;;;;17.80;10.40;;;16.60;99.90;;;;;;5072861;28;20465;-72
2021/09/01 07:23:03;;;;;;;12.65;8.82;;;16.70;99.90;;;;;;5071649;28;20498;-73
2021/09/01 07:25:32;;;;;;;13.70;8.20;;;16.70;99.90;;;;;;5073126;28;20781;-72
2021/09/01 07:27:57;;;;;;;15.67;8.43;;;16.80;99.90;;;;;;5072633;28;20960;-72
2021/09/01 07:30:23;;;;;;;16.00;13.07;;;16.80;99.90;;;;;;5051037;28;20462;-72
2021/09/01 07:32:48;;;;;;;20.43;9.60;;;16.90;99.90;;;;;;5051081;28;20252;-72
2021/09/01 07:35:14;;;;;;;13.53;10.00;;;16.70;99.90;;;;;;5071350;28;20181;-72
2021/09/01 07:37:43;;;;;;;10.90;9.00;;;16.70;99.90;;;;;;5069120;28;20264;-72
2021/09/01 07:40:09;;;;;;;12.50;8.40;;;16.80;99.90;;;;;;5039777;28;20224;-73
2021/09/01 07:42:35;;;;;;;16.43;9.17;;;16.80;99.90;;;;;;5072348;28;20457;-72
2021/09/01 07:45:00;;;;;;;11.07;8.20;;;16.70;99.90;;;;;;5070635;28;20793;-72
2021/09/01 07:47:26;;;;;;;14.10;8.87;;;16.70;99.90;;;;;;5052191;28;20197;-73
2021/09/01 07:49:51;;;;;;;19.10;9.47;;;16.80;99.90;;;;;;5069717;28;20696;-72
2021/09/01 07:52:17;;;;;;;12.90;9.13;;;16.80;99.90;;;;;;5072388;28;20681;-73
2021/09/01 07:54:43;;;;;;;10.63;8.60;;;16.70;99.90;;;;;;5063786;28;20182;-72
2021/09/01 07:57:08;;;;;;;12.20;9.27;;;16.70;99.90;;;;;;5050743;28;20220;-72
2021/09/01 07:59:34;;;;;;;10.57;8.07;;;16.70;99.90;;;;;;5067713;28;20196;-72
2021/09/01 08:01:59;;;;;;;15.50;9.45;;;16.70;99.90;;;;;;5065704;28;20431;-73
2021/09/01 08:04:25;;;;;;;13.27;9.67;;;16.70;99.90;;;;;;5059155;28;20180;-71
2021/09/01 08:06:50;;;;;;;12.27;9.20;;;16.60;99.90;;;;;;5072539;28;20262;-72
2021/09/01 08:09:16;;;;;;;10.60;8.13;;;16.70;99.90;;;;;;5074033;28;20180;-72
2021/09/01 08:11:41;;;;;;;13.83;8.47;;;16.70;99.90;;;;;;5054404;28;20354;-72
2021/09/01 08:14:07;;;;;;;12.60;8.80;;;16.70;99.90;;;;;;5049426;28;20182;-72
2021/09/01 08:16:32;;;;;;;9.93;8.80;;;16.60;99.90;;;;;;5059125;28;20209;-72
2021/09/01 08:18:58;;;;;;;13.00;9.40;;;16.50;99.90;;;;;;5059404;28;20197;-73
2021/09/01 08:21:24;;;;;;;17.47;10.10;;;16.50;99.90;;;;;;5047979;28;20580;-72
2021/09/01 08:23:49;;;;;;;13.93;9.50;;;16.50;99.90;;;;;;5053513;28;20192;-72
2021/09/01 08:26:15;;;;;;;16.67;9.87;;;16.40;99.90;;;;;;5053282;28;20241;-72
2021/09/01 08:28:41;;;;;;;13.03;10.20;;;16.40;99.90;;;;;;5051976;28;20216;-73
2021/09/01 08:31:06;;;;;;;15.30;9.97;;;16.40;99.90;;;;;;5063206;28;20300;-73
2021/09/01 08:33:32;;;;;;;13.30;10.17;;;16.40;99.90;;;;;;5054114;28;20573;-72
2021/09/01 08:35:57;;;;;;;14.63;10.60;;;16.50;99.90;;;;;;5054431;28;20202;-72
2021/09/01 08:38:23;;;;;;;11.63;9.97;;;16.40;99.90;;;;;;5052515;28;20240;-72
2021/09/01 08:40:49;;;;;;;16.33;11.50;;;16.50;99.90;;;;;;5051608;28;20201;-73
2021/09/01 08:43:18;;;;;;;16.60;11.10;;;16.60;99.90;;;;;;5044609;28;20423;-72
2021/09/01 08:45:46;;;;;;;15.00;11.20;;;16.60;99.90;;;;;;5046051;28;20436;-73
2021/09/01 08:48:14;;;;;;;14.70;11.00;;;16.60;99.90;;;;;;5051671;28;20900;-71
2021/09/01 08:50:40;;;;;;;12.90;9.93;;;16.60;99.90;;;;;;5071798;28;20443;-73
2021/09/01 08:53:06;;;;;;;14.83;9.70;;;16.50;99.90;;;;;;5063196;28;20421;-73
2021/09/01 08:55:31;;;;;;;13.90;9.73;;;16.40;99.90;;;;;;5059294;28;20170;-73
2021/09/01 08:57:57;;;;;;;15.20;9.40;;;16.20;99.90;;;;;;5051972;28;20221;-73
2021/09/01 09:00:22;;;;;;;12.20;9.87;;;16.10;99.90;;;;;;5059362;28;20214;-72
2021/09/01 09:02:55;;;;;;;17.20;9.00;;;16.20;99.90;;;;;;5040216;28;20562;-72
2021/09/01 09:05:42;;;;;;;11.87;8.67;;;16.30;99.90;;;;;;5061372;28;20182;-72
2021/09/01 09:08:12;;;;;;;14.20;8.60;;;16.50;99.90;;;;;;5050894;28;20456;-73
2021/09/01 09:10:40;;;;;;;16.40;9.90;;;16.60;99.90;;;;;;5071902;28;20439;-74
2021/09/01 09:13:11;;;;;;;12.80;9.87;;;16.70;99.90;;;;;;5059759;28;20459;-72
2021/09/01 09:15:39;;;;;;;17.27;11.87;;;16.70;99.90;;;;;;5064206;28;20502;-73
2021/09/01 09:18:27;;;;;;;15.07;11.63;;;16.70;99.90;;;;;;5053371;28;20593;-72
2021/09/01 09:21:19;;;;;;;16.33;10.77;;;16.80;99.90;;;;;;5058317;28;20519;-71
2021/09/01 09:23:47;;;;;;;18.83;12.93;;;16.80;99.90;;;;;;5039140;28;20428;-74
2021/09/01 09:26:41;;;;;;;13.40;11.00;;;16.80;99.90;;;;;;5053621;28;20547;-73
2021/09/01 09:29:12;;;;;;;13.73;11.60;;;16.70;99.90;;;;;;5051369;28;20420;-74
2021/09/01 09:31:39;;;;;;;16.37;11.70;;;16.60;99.90;;;;;;5073325;28;20428;-73
2021/09/01 09:34:09;;;;;;;13.93;10.37;;;16.50;99.90;;;;;;5072471;28;20461;-74
2021/09/01 09:36:35;;;;;;;17.47;11.80;;;16.40;99.90;;;;;;5072813;28;20490;-73
2021/09/01 09:39:02;;;;;;;15.80;11.00;;;16.30;99.90;;;;;;5072528;28;20496;-73
2021/09/01 09:41:29;;;;;;;17.13;12.20;;;16.20;99.90;;;;;;5049943;28;20213;-75
2021/09/01 09:44:03;;;;;;;16.90;13.10;;;16.30;99.90;;;;;;5052365;28;20417;-74
2021/09/01 09:46:30;;;;;;;17.00;11.50;;;16.30;99.90;;;;;;5034014;28;20507;-73
2021/09/01 09:49:07;;;;;;;13.37;11.37;;;16.20;99.90;;;;;;5043202;28;20413;-72
2021/09/01 09:51:42;;;;;;;15.43;11.90;;;16.20;99.90;;;;;;5065262;28;20864;-74
2021/09/01 09:54:15;;;;;;;16.23;11.43;;;16.30;99.90;;;;;;5071424;28;20416;-73
2021/09/01 09:56:42;;;;;;;16.60;12.37;;;16.50;99.90;;;;;;5058296;28;20428;-72
2021/09/01 09:59:12;;;;;;;15.77;12.83;;;16.50;99.90;;;;;;5055136;28;20572;-73
2021/09/01 10:01:38;;;;;;;17.83;13.03;;;16.50;99.90;;;;;;5053688;28;20523;-72
2021/09/01 10:04:05;;;;;;;15.27;12.40;;;16.50;99.90;;;;;;5071796;28;20462;-74
2021/09/01 10:06:31;;;;;;;19.07;13.40;;;16.60;99.90;;;;;;5074143;28;20685;-74
2021/09/01 10:08:57;;;;;;;17.17;13.47;;;16.70;99.90;;;;;;5067523;28;20848;-73
2021/09/01 10:11:23;;;;;;;20.27;14.90;;;16.50;99.90;;;;;;5056080;28;20433;-73
2021/09/01 10:13:51;;;;;;;19.07;14.70;;;16.60;99.90;;;;;;5069784;28;20324;-73
2021/09/01 10:16:19;;;;;;;17.27;13.80;;;16.60;99.90;;;;;;5050244;28;20448;-74
2021/09/01 10:18:49;;;;;;;17.20;14.47;;;16.70;99.90;;;;;;5068743;28;20420;-72
2021/09/01 10:21:16;;;;;;;16.10;13.70;;;16.80;99.90;;;;;;5040726;28;20861;-72
2021/09/01 10:23:44;;;;;;;18.93;13.67;;;16.70;99.90;;;;;;5063802;28;20870;-73
2021/09/01 10:26:31;;;;;;;18.70;14.63;;;16.80;99.90;;;;;;5052777;28;20500;-73
2021/09/01 10:28:59;;;;;;;18.77;14.53;;;17.00;99.90;;;;;;5053668;28;20446;-72
2021/09/01 10:31:34;;;;;;;18.17;13.93;;;17.00;99.90;;;;;;5078328;28;20431;-73
2021/09/01 10:34:21;;;;;;;16.37;13.50;;;17.10;99.90;;;;;;5033010;28;20453;-75
2021/09/01 10:36:48;;;;;;;17.43;14.97;;;17.30;99.90;;;;;;5050916;28;20436;-74
2021/09/01 10:39:38;;;;;;;20.27;15.07;;;17.40;99.90;;;;;;5056447;28;20431;-74
2021/09/01 10:42:38;;;;;;;17.40;14.30;;;17.30;99.90;;;;;;5046789;28;20449;-73
2021/09/01 10:45:06;;;;;;;22.83;13.70;;;17.30;99.90;;;;;;5057265;28;20424;-75
2021/09/01 10:47:54;;;;;;;19.77;13.73;;;17.30;99.90;;;;;;5069753;28;20975;-73
2021/09/01 10:50:39;;;;;;;14.77;12.77;;;17.50;99.90;;;;;;5042293;28;20909;-73
2021/09/01 10:53:18;;;;;;;18.67;14.33;;;17.70;99.90;;;;;;5040371;28;20452;-73
2021/09/01 10:55:59;;;;;;;19.03;14.30;;;17.80;99.90;;;;;;5046887;28;20592;-72
2021/09/01 10:58:34;;;;;;;20.47;15.20;;;17.90;99.90;;;;;;5078285;28;20469;-73
2021/09/01 11:01:06;;;;;;;18.87;14.70;;;17.70;99.90;;;;;;5071760;28;20526;-73
2021/09/01 11:03:36;;;;;;;16.70;13.17;;;17.70;99.90;;;;;;5056734;28;20460;-75
2021/09/01 11:06:21;;;;;;;18.60;14.33;;;17.90;99.90;;;;;;5052845;28;20429;-74
2021/09/01 11:08:58;;;;;;;17.80;15.30;;;18.00;99.90;;;;;;5043363;28;20461;-73
2021/09/01 11:11:43;;;;;;;21.88;17.05;;;18.10;99.90;;;;;;5059141;28;20429;-74
2021/09/01 11:14:10;;;;;;;18.13;15.43;;;18.20;99.90;;;;;;5076407;28;20205;-74
2021/09/01 11:16:35;;;;;;;20.73;17.52;;;18.30;99.90;;;;;;5071527;28;20421;-73
2021/09/01 11:19:07;;;;;;;20.23;16.23;;;18.10;99.90;;;;;;5063958;28;20174;-74
2021/09/01 11:21:38;;;;;;;18.37;15.17;;;18.10;99.90;;;;;;5078250;28;20223;-73
2021/09/01 11:24:06;;;;;;;22.00;15.83;;;18.20;99.90;;;;;;5052059;28;20445;-73
2021/09/01 11:26:33;;;;;;;20.17;16.73;;;18.30;99.90;;;;;;5051831;28;20431;-74
2021/09/01 11:29:00;;;;;;;23.30;17.97;;;18.40;99.90;;;;;;5048161;28;20447;-74
2021/09/01 11:31:26;;;;;;;19.33;15.43;;;18.30;99.90;;;;;;5067589;28;20472;-74
2021/09/01 11:33:56;;;;;;;18.90;14.80;;;18.30;99.90;;;;;;5059885;28;20431;-73
2021/09/01 11:36:24;;;;;;;20.57;15.03;;;18.30;99.90;;;;;;5069083;28;20463;-73
2021/09/01 11:38:49;;;;;;;18.90;14.60;;;18.30;99.90;;;;;;5061871;28;20428;-74
2021/09/01 11:41:15;;;;;;;14.53;12.50;;;18.30;99.90;;;;;;5069711;28;20448;-73
2021/09/01 11:43:40;;;;;;;18.07;13.83;;;18.10;99.90;;;;;;5063203;28;20623;-75
2021/09/01 11:46:07;;;;;;;19.97;12.87;;;18.00;99.90;;;;;;5062644;28;20189;-73
2021/09/01 11:48:42;;;;;;;14.23;12.10;;;18.00;99.90;;;;;;5065456;28;20226;-72
2021/09/01 11:51:07;;;;;;;18.37;15.07;;;18.00;99.90;;;;;;5061426;28;20588;-72
2021/09/01 11:53:43;;;;;;;21.10;15.40;;;17.90;99.90;;;;;;5065141;28;20471;-73
2021/09/01 11:56:09;;;;;;;19.23;16.00;;;17.70;99.90;;;;;;5043351;28;20534;-72
2021/09/01 11:58:35;;;;;;;17.03;14.30;;;17.70;99.90;;;;;;5044527;28;20577;-74
2021/09/01 12:01:05;;;;;;;19.43;16.30;;;17.60;99.90;;;;;;5070330;28;20439;-73
2021/09/01 12:03:32;;;;;;;18.63;14.60;;;17.60;99.90;;;;;;5069973;28;20167;-73
2021/09/01 12:06:08;;;;;;;17.77;13.90;;;17.50;99.90;;;;;;5062661;28;20413;-74
2021/09/01 12:08:43;;;;;;;18.90;15.83;;;17.60;99.90;;;;;;5044830;28;20452;-73
2021/09/01 12:11:09;;;;;;;21.80;16.23;;;17.70;99.90;;;;;;5071262;28;20503;-74
2021/09/01 12:13:40;;;;;;;20.67;15.17;;;17.60;99.90;;;;;;5081612;28;20440;-71
2021/09/01 12:16:06;;;;;;;19.37;14.53;;;17.60;99.90;;;;;;5044518;28;20472;-71
2021/09/01 12:18:49;;;;;;;19.43;14.50;;;17.70;99.90;;;;;;5060971;28;20431;-73
2021/09/01 12:21:15;;;;;;;17.43;13.00;;;17.70;99.90;;;;;;5060315;28;20447;-73
2021/09/01 12:23:40;;;;;;;17.77;12.20;;;17.80;99.90;;;;;;5072332;28;20434;-73
2021/09/01 12:26:06;;;;;;;17.60;12.93;;;17.90;99.90;;;;;;5059001;28;20190;-73
2021/09/01 12:28:47;;;;;;;19.10;13.53;;;18.00;99.90;;;;;;5080090;28;20255;-73
2021/09/01 12:31:23;;;;;;;15.17;12.30;;;18.10;99.90;;;;;;5078948;28;20889;-73
2021/09/01 12:33:49;;;;;;;16.80;11.43;;;18.00;99.90;;;;;;5062368;28;20426;-73
2021/09/01 12:36:27;;;;;;;19.10;13.37;;;18.10;99.90;;;;;;5054655;28;20428;-74